Weather at Eulogio Sánchez Airport

Public forecast

Using degrees Celsius for public forecast. Weather courtesy of forecast.io.

Current aviation weather report (METAR) for Eulogio Sánchez Airport

Retrieved 2020/11/24 19:00 UTC (58 minutes ago):

SCTB 241900Z 23008KT 9999 FEW110 26/07 Q1018

Closest aviation forecast (TAF) to Eulogio Sánchez Airport

Closest forecast is Comodoro Arturo Merino Benítez International Airport, 12.6 nm (23.3 km) WNW. Retrieved 2020/11/24 18:00 UTC (2 hours ago):

TAF SCEL 241600Z 2418/2518 21018KT CAVOK TX28/2419Z TN09/2511Z BECMG 2501/2503 15008KT BECMG 2509/2511 VRB02KT BECMG 2514/2516 17006KT